Fairmont, West Virginia
Current Conditions -  °F | °C
As of 9:16 AM on Thursday 27 Nov 2014 (Local Time) from KCKB Reporting Station
Light Snow Light Snow  
Wind Chill: -1°   Ceiling: 1400
Heat Index:   Visibility: 2.5mi
Dew Point:   Wind: 5mph
Humidity: 92%   Direction: 280°W
Pressure: 30.06"   Gusts: NA
Location:  39.48°N, 80.15°W
Report Text: KCKB 271416Z 28004KT 2 1/2SM -SN BR FEW005 OVC014 01/00 A3006 RMK AO2 SNB1359 P0000 T00110000
Loading
Personal Weather Stations






























Interactive Weather Map New forecast layout! Learn more

10-Day Weather Forecast

Advertisements
Track Severe Weather on mobile